createdAt,value
2023-02-04T00:00:19.950Z,5.9
2023-02-04T00:01:30.339Z,7
2023-02-04T00:02:39.630Z,10.6
2023-02-04T00:03:47.605Z,8.9
2023-02-04T00:04:57.053Z,11.4
2023-02-04T00:06:07.001Z,11.5
2023-02-04T00:07:17.420Z,9.7
2023-02-04T00:08:26.553Z,9.1
2023-02-04T00:09:34.939Z,8.1
2023-02-04T00:10:43.544Z,6.4
2023-02-04T00:11:53.313Z,7.1
2023-02-04T00:13:03.480Z,7.1
2023-02-04T00:14:11.945Z,7.5
2023-02-04T00:15:21.016Z,8.4
2023-02-04T00:16:30.264Z,7.9
2023-02-04T00:17:38.527Z,10.7
2023-02-04T00:18:47.685Z,10.2
2023-02-04T00:19:57.420Z,12
2023-02-04T00:21:06.868Z,7.2
2023-02-04T00:22:16.351Z,8.2
2023-02-04T00:23:25.724Z,9
2023-02-04T00:24:34.821Z,7.6
2023-02-04T00:25:42.539Z,7.9
2023-02-04T00:26:50.787Z,7.2
2023-02-04T00:28:00.036Z,5.6
2023-02-04T00:29:08.153Z,4.8
2023-02-04T00:30:17.477Z,8.3
2023-02-04T00:31:26.851Z,7.1
2023-02-04T00:32:34.965Z,8.1
2023-02-04T00:33:44.589Z,7.3
2023-02-04T00:34:54.117Z,6.7
2023-02-04T00:36:02.501Z,6.9
2023-02-04T00:37:12.344Z,7.1
2023-02-04T00:38:20.465Z,7.2
2023-02-04T00:39:28.998Z,6.1
2023-02-04T00:40:37.784Z,6.4
2023-02-04T00:41:46.517Z,5.9
2023-02-04T00:42:56.327Z,6.3
2023-02-04T00:44:04.556Z,5.5
2023-02-04T00:45:12.379Z,8.1
2023-02-04T00:46:21.438Z,7.1
2023-02-04T00:47:30.040Z,7.6
2023-02-04T00:48:38.650Z,6.8
2023-02-04T00:49:46.290Z,6.1
2023-02-04T00:50:54.005Z,6.2
2023-02-04T00:52:04.185Z,5.5
2023-02-04T00:53:13.398Z,6.3
2023-02-04T00:54:22.765Z,6.1
2023-02-04T00:55:31.325Z,5.9
2023-02-04T00:56:39.566Z,5.5
2023-02-04T00:57:48.402Z,5.9
2023-02-04T00:58:57.178Z,6.4
2023-02-04T01:00:08.451Z,6.2
2023-02-04T01:01:18.395Z,7.6
2023-02-04T01:02:27.036Z,6.2
2023-02-04T01:03:34.611Z,6.5
2023-02-04T01:04:44.096Z,7.7
2023-02-04T01:05:52.466Z,6.5
2023-02-04T01:07:01.071Z,6.7
2023-02-04T01:08:09.646Z,6.9
2023-02-04T01:09:17.515Z,6.7
2023-02-04T01:10:26.721Z,6.7
2023-02-04T01:11:35.456Z,6.7
2023-02-04T01:12:43.262Z,8
2023-02-04T01:13:53.538Z,7.7
2023-02-04T01:15:01.631Z,6.5
2023-02-04T01:16:10.945Z,6.8
2023-02-04T01:17:21.749Z,6
2023-02-04T01:18:30.245Z,5.9
2023-02-04T01:19:39.722Z,4.8
2023-02-04T01:20:47.715Z,6.3
2023-02-04T01:21:56.681Z,5.8
2023-02-04T01:23:04.991Z,4.9
2023-02-04T01:24:13.489Z,4.8
2023-02-04T01:25:23.336Z,4.7
2023-02-04T01:26:32.236Z,4.9
2023-02-04T01:27:40.623Z,4.2
2023-02-04T01:28:48.512Z,4.2
2023-02-04T01:29:58.485Z,5.3
2023-02-04T01:31:08.077Z,4.8
2023-02-04T01:32:15.507Z,5.5
2023-02-04T01:33:24.026Z,4.7
2023-02-04T01:34:33.253Z,4.6
2023-02-04T01:35:42.913Z,5
2023-02-04T01:36:53.034Z,5.5
2023-02-04T01:38:02.150Z,4.3
2023-02-04T01:39:10.360Z,4.7
2023-02-04T01:40:18.827Z,5.3
2023-02-04T01:41:28.108Z,5
2023-02-04T01:42:35.789Z,4.5
2023-02-04T01:43:45.063Z,4.9
2023-02-04T01:44:53.634Z,4.2
2023-02-04T01:46:01.878Z,3.5
2023-02-04T01:47:12.457Z,6.1
2023-02-04T01:48:19.943Z,4.7
2023-02-04T01:49:28.239Z,3.5
2023-02-04T01:50:35.514Z,3.7
2023-02-04T01:51:44.263Z,4.2
2023-02-04T01:52:51.689Z,3.8
2023-02-04T01:54:00.315Z,4
2023-02-04T01:55:08.231Z,3.7
2023-02-04T01:56:16.544Z,3.7
2023-02-04T01:57:28.591Z,2.5
2023-02-04T01:58:37.415Z,2.5
2023-02-04T01:59:46.427Z,3.1
2023-02-04T02:00:56.377Z,2.4
2023-02-04T02:02:04.478Z,2.1
2023-02-04T02:03:24.383Z,3.5
2023-02-04T02:04:34.252Z,2.7
2023-02-04T02:05:42.318Z,2.6
2023-02-04T02:06:51.295Z,2.5
2023-02-04T02:07:58.967Z,3.4
2023-02-04T02:09:06.365Z,2.7
2023-02-04T02:10:14.711Z,2
2023-02-04T02:11:22.191Z,2.1
2023-02-04T02:12:31.531Z,2.4
2023-02-04T02:13:40.017Z,2.5
2023-02-04T02:14:48.199Z,2.8
2023-02-04T02:15:57.228Z,2.2
2023-02-04T02:17:05.643Z,3.4
2023-02-04T02:18:15.554Z,3.3
2023-02-04T02:19:24.075Z,3
2023-02-04T02:20:32.570Z,2.6
2023-02-04T02:21:41.138Z,2.8
2023-02-04T02:22:53.003Z,4.8
2023-02-04T02:24:06.071Z,2.9
2023-02-04T02:25:20.522Z,2.9
2023-02-04T02:26:30.719Z,2.7
2023-02-04T02:27:40.612Z,2.7
2023-02-04T02:28:49.642Z,2.8
2023-02-04T02:29:58.253Z,3.6
2023-02-04T02:31:06.174Z,2.9
2023-02-04T02:32:14.469Z,3.2
2023-02-04T02:33:23.210Z,2.8
2023-02-04T02:34:31.167Z,3.4
2023-02-04T02:35:39.090Z,2.9
2023-02-04T02:36:48.326Z,2.9
2023-02-04T02:37:58.565Z,2.7
2023-02-04T02:39:06.650Z,3.1
2023-02-04T02:40:16.063Z,3.1
2023-02-04T02:41:25.686Z,3.4
2023-02-04T02:42:35.010Z,3.3
2023-02-04T02:43:43.429Z,4
2023-02-04T02:44:51.309Z,2.8
2023-02-04T02:46:00.909Z,2.3
2023-02-04T02:47:10.140Z,2.5
2023-02-04T02:48:18.592Z,2.2
2023-02-04T02:49:26.281Z,2.5
2023-02-04T02:50:35.146Z,2.5
2023-02-04T02:51:44.310Z,2.3
2023-02-04T02:52:53.087Z,2.5
2023-02-04T02:54:03.123Z,2.5
2023-02-04T02:55:11.875Z,2.6
2023-02-04T02:56:21.149Z,3
2023-02-04T02:57:30.629Z,3
2023-02-04T02:58:42.056Z,2.4
2023-02-04T02:59:52.245Z,3.1
2023-02-04T03:01:01.849Z,2.8
2023-02-04T03:02:10.525Z,3.5
2023-02-04T03:03:19.132Z,3.5
2023-02-04T03:04:29.940Z,2.8
2023-02-04T03:05:39.220Z,3.5
2023-02-04T03:06:48.337Z,3.1
2023-02-04T03:07:56.935Z,3.7
2023-02-04T03:09:06.772Z,4.1
2023-02-04T03:10:14.287Z,3.4
2023-02-04T03:11:23.435Z,3
2023-02-04T03:12:31.485Z,4.1
2023-02-04T03:13:41.896Z,3.3
2023-02-04T03:14:50.614Z,3.2
2023-02-04T03:15:58.130Z,2.9
2023-02-04T03:17:06.863Z,3.5
2023-02-04T03:18:15.543Z,2.7
2023-02-04T03:19:25.873Z,2.5
2023-02-04T03:20:34.004Z,2.6
2023-02-04T03:21:42.997Z,2.7
2023-02-04T03:22:51.669Z,2.8
2023-02-04T03:24:01.153Z,2.4
2023-02-04T03:25:08.664Z,3.1
2023-02-04T03:26:18.467Z,2.6
2023-02-04T03:27:28.434Z,2.6
2023-02-04T03:28:36.978Z,2.6
2023-02-04T03:29:46.062Z,2.7
2023-02-04T03:30:54.426Z,2.5
2023-02-04T03:32:02.862Z,2.7
2023-02-04T03:33:14.397Z,2.4
2023-02-04T03:34:24.691Z,2.3
2023-02-04T03:35:33.412Z,2.7
2023-02-04T03:36:44.015Z,3
2023-02-04T03:37:54.792Z,2.9
2023-02-04T03:39:03.200Z,4.6
2023-02-04T03:40:10.939Z,5.1
2023-02-04T03:41:19.513Z,4.3
2023-02-04T03:42:27.448Z,4.5
2023-02-04T03:43:35.479Z,5.7
2023-02-04T03:44:43.965Z,3.5
2023-02-04T03:45:51.748Z,5.3
2023-02-04T03:47:01.212Z,4.1
2023-02-04T03:48:09.933Z,3.8
2023-02-04T03:49:19.860Z,4.4
2023-02-04T03:50:30.112Z,5.3
2023-02-04T03:51:37.819Z,4.2
2023-02-04T03:52:45.878Z,4.5
2023-02-04T03:53:54.809Z,4.9
2023-02-04T03:55:05.645Z,4.6
2023-02-04T03:56:15.673Z,4.5
2023-02-04T03:57:24.937Z,4.4
2023-02-04T03:58:35.058Z,4.8
2023-02-04T03:59:44.083Z,4.8
2023-02-04T04:00:52.371Z,4.1
2023-02-04T04:02:01.976Z,4.1
2023-02-04T04:03:10.147Z,4.2
2023-02-04T04:04:19.306Z,4
2023-02-04T04:05:26.990Z,3.9
2023-02-04T04:06:34.262Z,3.9
2023-02-04T04:07:44.326Z,5.7
2023-02-04T04:08:53.016Z,4.1
2023-02-04T04:10:04.470Z,4.4
2023-02-04T04:11:13.290Z,4.7
2023-02-04T04:12:22.418Z,4.7
2023-02-04T04:13:30.745Z,6.5
2023-02-04T04:14:38.710Z,4.5
2023-02-04T04:15:46.730Z,5.4
2023-02-04T04:16:54.436Z,4.8
2023-02-04T04:18:03.189Z,5.4
2023-02-04T04:19:12.669Z,5.4
2023-02-04T04:20:22.134Z,5.4
2023-02-04T04:21:30.009Z,5.5
2023-02-04T04:22:38.571Z,6.5
2023-02-04T04:23:46.075Z,5.4
2023-02-04T04:24:55.721Z,5.8
2023-02-04T04:26:04.517Z,7.8
2023-02-04T04:27:14.263Z,5.9
2023-02-04T04:28:23.289Z,6.7
2023-02-04T04:29:31.567Z,7.4
2023-02-04T04:30:40.507Z,6.1
2023-02-04T04:31:50.380Z,7.1
2023-02-04T04:32:59.048Z,6.5
2023-02-04T04:34:08.256Z,7.5
2023-02-04T04:35:16.015Z,7.3
2023-02-04T04:36:24.730Z,7.5
2023-02-04T04:37:34.697Z,8.2
2023-02-04T04:38:43.904Z,8.1
2023-02-04T04:39:53.370Z,8
2023-02-04T04:41:03.371Z,8.1
2023-02-04T04:42:11.967Z,6.9
2023-02-04T04:43:22.462Z,8.1
2023-02-04T04:44:30.351Z,8.8
2023-02-04T04:45:40.000Z,9.2
2023-02-04T04:46:48.150Z,9.9
2023-02-04T04:47:58.330Z,9.9
2023-02-04T04:49:07.256Z,10.6
2023-02-04T04:50:14.877Z,11.7
2023-02-04T04:51:24.211Z,10.9
2023-02-04T04:52:34.145Z,9.3
2023-02-04T04:53:43.590Z,8.6
2023-02-04T04:54:51.776Z,8.6
2023-02-04T04:56:00.332Z,9.6
2023-02-04T04:57:10.072Z,11
2023-02-04T04:58:18.372Z,9.1
2023-02-04T04:59:26.674Z,9.1
2023-02-04T05:00:35.487Z,8.6
2023-02-04T05:01:44.478Z,10.2
2023-02-04T05:02:53.341Z,8.1
2023-02-04T05:04:01.294Z,9.5
2023-02-04T05:05:08.944Z,8.1
2023-02-04T05:06:17.826Z,7.7
2023-02-04T05:07:27.881Z,6.5
2023-02-04T05:08:37.250Z,6.8
2023-02-04T05:09:44.425Z,7.5
2023-02-04T05:10:54.571Z,7.6
2023-02-04T05:12:04.145Z,7.2
2023-02-04T05:13:12.693Z,6.7
2023-02-04T05:14:21.169Z,6.6
2023-02-04T05:15:29.174Z,6.4
2023-02-04T05:16:38.135Z,6.5
2023-02-04T05:17:46.461Z,6.5
2023-02-04T05:18:55.175Z,6.8
2023-02-04T05:20:04.332Z,6.7
2023-02-04T05:21:13.336Z,8.2
2023-02-04T05:22:23.098Z,7
2023-02-04T05:23:31.977Z,6.2
2023-02-04T05:24:40.484Z,6.3
2023-02-04T05:25:50.433Z,6.7
2023-02-04T05:26:59.273Z,6.6
2023-02-04T05:28:09.123Z,8
2023-02-04T05:29:17.171Z,7.7
2023-02-04T05:30:25.557Z,9.1
2023-02-04T05:31:34.402Z,6.5
2023-02-04T05:32:43.286Z,7.1
2023-02-04T05:33:51.371Z,6.3
2023-02-04T05:35:00.879Z,6.3
2023-02-04T05:36:10.090Z,9
2023-02-04T05:37:19.161Z,10.7
2023-02-04T05:38:28.494Z,9.1
2023-02-04T05:39:37.702Z,8.6
2023-02-04T05:40:48.190Z,11.9
2023-02-04T05:42:00.183Z,10.4
2023-02-04T05:43:09.786Z,12.7
2023-02-04T05:44:20.405Z,9.2
2023-02-04T05:45:28.048Z,9.3
2023-02-04T05:46:37.941Z,8.8
2023-02-04T05:47:47.886Z,8.6
2023-02-04T05:48:56.570Z,10.8
2023-02-04T05:50:05.076Z,12.2
2023-02-04T05:51:13.227Z,10.3
2023-02-04T05:52:22.675Z,10.1
2023-02-04T05:53:31.769Z,10.3
2023-02-04T05:54:41.098Z,10.5
2023-02-04T05:55:50.712Z,10.2
2023-02-04T05:57:00.697Z,10.7
2023-02-04T05:58:09.653Z,10.9
2023-02-04T05:59:17.936Z,9.1
2023-02-04T06:00:26.008Z,8.9
2023-02-04T06:01:34.386Z,7.6
2023-02-04T06:02:42.870Z,7.6
2023-02-04T06:03:50.608Z,8.8
2023-02-04T06:04:59.934Z,10.9
2023-02-04T06:06:09.669Z,10
2023-02-04T06:07:19.012Z,9.1
2023-02-04T06:08:27.497Z,8.6
2023-02-04T06:09:35.654Z,9.1
2023-02-04T06:10:44.232Z,8.6
2023-02-04T06:11:53.812Z,8.7
2023-02-04T06:13:02.399Z,7.9
2023-02-04T06:14:10.729Z,8
2023-02-04T06:15:18.264Z,10.4
2023-02-04T06:16:26.204Z,8.5
2023-02-04T06:17:33.904Z,7.8
2023-02-04T06:18:43.325Z,7.2
2023-02-04T06:19:53.622Z,9
2023-02-04T06:21:02.308Z,7.9
2023-02-04T06:22:09.814Z,8.5
2023-02-04T06:23:18.766Z,11.3
2023-02-04T06:24:27.707Z,9.9
2023-02-04T06:25:38.189Z,11
2023-02-04T06:26:47.999Z,27.6
2023-02-04T06:27:57.986Z,27.6
2023-02-04T06:29:08.764Z,21.4
2023-02-04T06:30:17.226Z,22.4
2023-02-04T06:31:25.240Z,24.1
2023-02-04T06:32:35.912Z,38.4
2023-02-04T06:33:45.483Z,33.8
2023-02-04T06:34:54.233Z,30.8
2023-02-04T06:36:03.375Z,25.1
2023-02-04T06:37:12.121Z,34.5
2023-02-04T06:38:20.265Z,24.5
2023-02-04T06:39:28.563Z,18
2023-02-04T06:40:35.926Z,16.2
2023-02-04T06:41:43.418Z,18.7
2023-02-04T06:42:51.934Z,16.5
2023-02-04T06:44:01.542Z,14.4
2023-02-04T06:45:10.131Z,12.9
2023-02-04T06:46:22.052Z,16.4
2023-02-04T06:47:30.655Z,17.4
2023-02-04T06:48:39.628Z,13.9
2023-02-04T06:49:48.662Z,13.7
2023-02-04T06:50:57.023Z,17.7
2023-02-04T06:52:06.646Z,13.4
2023-02-04T06:53:14.532Z,12.3
2023-02-04T06:54:22.474Z,12.6
2023-02-04T06:55:31.199Z,13.1
2023-02-04T06:56:42.089Z,11.6
2023-02-04T06:57:51.596Z,11.6
2023-02-04T06:59:02.026Z,11.6
2023-02-04T07:00:08.536Z,10.8
2023-02-04T07:01:18.598Z,10.5
2023-02-04T07:02:27.859Z,9.8
2023-02-04T07:03:36.901Z,9.8
2023-02-04T07:04:47.786Z,8.5
2023-02-04T07:05:55.181Z,9.2
2023-02-04T07:07:04.132Z,9.2
2023-02-04T07:08:13.702Z,9.6
2023-02-04T07:09:21.064Z,9
2023-02-04T07:10:28.864Z,8.8
2023-02-04T07:11:38.636Z,8.2
2023-02-04T07:12:45.769Z,9.9
2023-02-04T07:13:53.685Z,9.4
2023-02-04T07:15:01.946Z,9.4
2023-02-04T07:16:10.047Z,9.4
2023-02-04T07:17:19.049Z,12.1
2023-02-04T07:18:27.797Z,11.4
2023-02-04T07:19:35.560Z,12
2023-02-04T07:20:45.888Z,9.6
2023-02-04T07:21:54.019Z,8.6
2023-02-04T07:23:04.180Z,10.3
2023-02-04T07:24:13.226Z,10.2
2023-02-04T07:25:22.785Z,9.2
2023-02-04T07:26:32.705Z,8.1
2023-02-04T07:27:41.589Z,8.6
2023-02-04T07:28:50.683Z,7.9
2023-02-04T07:30:00.587Z,10.5
2023-02-04T07:31:09.719Z,10.8
2023-02-04T07:32:19.244Z,11
2023-02-04T07:33:28.761Z,10
2023-02-04T07:34:38.033Z,13.8
2023-02-04T07:35:50.351Z,10.3
2023-02-04T07:37:00.038Z,11.2
2023-02-04T07:38:09.045Z,10.7
2023-02-04T07:39:27.401Z,11.1
2023-02-04T07:40:38.464Z,10.4
2023-02-04T07:41:48.401Z,9.2
2023-02-04T07:42:57.748Z,11.4
2023-02-04T07:44:06.525Z,11
2023-02-04T07:45:15.124Z,12.2
2023-02-04T07:46:25.445Z,11.1
2023-02-04T07:47:33.023Z,10.3
2023-02-04T07:48:41.130Z,10.5
2023-02-04T07:49:49.572Z,9.8
2023-02-04T07:51:00.376Z,11.5
2023-02-04T07:52:09.939Z,10.3
2023-02-04T07:53:19.224Z,10.4
2023-02-04T07:54:27.368Z,10.4
2023-02-04T07:55:36.361Z,11.8
2023-02-04T07:56:45.850Z,11.5
2023-02-04T07:57:53.934Z,11.1
2023-02-04T07:59:04.353Z,10.3
2023-02-04T08:00:12.283Z,12.6
2023-02-04T08:01:22.739Z,12.8
2023-02-04T08:02:30.992Z,12.8
2023-02-04T08:03:41.679Z,12.6
2023-02-04T08:04:50.857Z,12.6
2023-02-04T08:05:59.021Z,12.8
2023-02-04T08:07:08.729Z,12.5
2023-02-04T08:08:17.058Z,11.3
2023-02-04T08:09:25.467Z,11.4
2023-02-04T08:10:33.213Z,12
2023-02-04T08:11:41.264Z,10.8
2023-02-04T08:12:50.435Z,18.2
2023-02-04T08:13:58.836Z,14.8
2023-02-04T08:15:07.215Z,12
2023-02-04T08:16:14.523Z,12
2023-02-04T08:17:22.655Z,13.8
2023-02-04T08:18:30.186Z,11.1
2023-02-04T08:19:38.253Z,11.4
2023-02-04T08:20:46.351Z,12.9
2023-02-04T08:21:53.390Z,12.8
2023-02-04T08:23:01.010Z,12
2023-02-04T08:24:09.067Z,11.4
2023-02-04T08:25:16.444Z,14.5
2023-02-04T08:26:23.385Z,11.4
2023-02-04T08:27:31.545Z,10.9
2023-02-04T08:28:38.669Z,11.7
2023-02-04T08:29:46.716Z,12.2
2023-02-04T08:30:55.273Z,11.5
2023-02-04T08:32:04.300Z,14.6
2023-02-04T08:33:11.143Z,12.5
2023-02-04T08:34:19.293Z,12.2
2023-02-04T08:35:26.439Z,13.6
2023-02-04T08:36:33.616Z,14.1
2023-02-04T08:37:41.557Z,14.1
2023-02-04T08:38:49.880Z,14.1
2023-02-04T08:39:57.059Z,15
2023-02-04T08:41:05.399Z,15.9
2023-02-04T08:42:13.678Z,19.1
2023-02-04T08:43:20.876Z,19.9
2023-02-04T08:44:28.851Z,17.5
2023-02-04T08:45:36.106Z,17.7
2023-02-04T08:46:43.341Z,16.1
2023-02-04T08:47:51.548Z,17
2023-02-04T08:48:58.835Z,18
2023-02-04T08:50:06.688Z,15.9
2023-02-04T08:51:14.542Z,14.8
2023-02-04T08:52:22.900Z,13.4
2023-02-04T08:53:30.475Z,13.7
2023-02-04T08:54:37.722Z,12.6
2023-02-04T08:55:44.795Z,12.6
2023-02-04T08:56:53.141Z,15.2
2023-02-04T08:58:01.139Z,13.8
2023-02-04T08:59:08.298Z,12.3
2023-02-04T09:00:15.476Z,12.3
2023-02-04T09:01:22.574Z,14.5
2023-02-04T09:02:30.181Z,16.7
2023-02-04T09:03:37.257Z,14.1
2023-02-04T09:04:44.349Z,13.4
2023-02-04T09:05:52.362Z,14.9
2023-02-04T09:06:59.988Z,16.1
2023-02-04T09:08:07.436Z,14.5
2023-02-04T09:09:16.046Z,12.9
2023-02-04T09:10:24.624Z,14
2023-02-04T09:11:31.653Z,14.6
2023-02-04T09:12:39.705Z,17.1
2023-02-04T09:13:47.191Z,13.3
2023-02-04T09:14:54.087Z,13.7
2023-02-04T09:16:02.272Z,15.3
2023-02-04T09:17:09.754Z,15.4
2023-02-04T09:18:16.939Z,12.4
2023-02-04T09:19:24.043Z,12
2023-02-04T09:20:33.238Z,16.8
2023-02-04T09:21:41.743Z,18.6
2023-02-04T09:22:49.402Z,17.6
2023-02-04T09:23:56.713Z,11.9
2023-02-04T09:25:04.731Z,11.9
2023-02-04T09:26:12.894Z,16.3
2023-02-04T09:27:20.810Z,15.4
2023-02-04T09:28:28.781Z,15.4
2023-02-04T09:29:36.874Z,11.2
2023-02-04T09:30:46.672Z,11.7
2023-02-04T09:31:54.558Z,11.5
2023-02-04T09:33:02.789Z,12.6
2023-02-04T09:34:11.853Z,11.1
2023-02-04T09:35:20.268Z,10.3
2023-02-04T09:36:27.226Z,10.4
2023-02-04T09:37:34.501Z,13.4
2023-02-04T09:38:42.598Z,10.9
2023-02-04T09:39:49.546Z,13.4
2023-02-04T09:40:58.511Z,14
2023-02-04T09:42:05.421Z,14.8
2023-02-04T09:43:14.131Z,14.2
2023-02-04T09:44:21.168Z,14.6
2023-02-04T09:45:29.059Z,16.5
2023-02-04T09:46:36.516Z,16.9
2023-02-04T09:47:43.676Z,18.5
2023-02-04T09:48:51.526Z,19.2
2023-02-04T09:50:00.994Z,19.7
2023-02-04T09:51:08.909Z,22.9
2023-02-04T09:52:17.026Z,16
2023-02-04T09:53:25.126Z,16.8
2023-02-04T09:54:32.540Z,16
2023-02-04T09:55:41.239Z,16.4
2023-02-04T09:56:49.429Z,17.4
2023-02-04T09:57:56.789Z,24.4
2023-02-04T09:59:04.153Z,24.9
2023-02-04T10:00:15.901Z,19.5
2023-02-04T10:01:24.930Z,17.2
2023-02-04T10:02:33.217Z,19.1
2023-02-04T10:03:40.425Z,19.1
2023-02-04T10:04:47.582Z,23.4
2023-02-04T10:05:55.560Z,16.7
2023-02-04T10:07:04.379Z,13.2
2023-02-04T10:08:12.258Z,10.9
2023-02-04T10:09:20.593Z,10.2
2023-02-04T10:10:28.028Z,12.3
2023-02-04T10:11:36.229Z,12.5
2023-02-04T10:12:43.481Z,14.8
2023-02-04T10:13:50.928Z,11.8
2023-02-04T10:14:58.308Z,14.6
2023-02-04T10:16:06.906Z,10.2
2023-02-04T10:17:14.986Z,9.9
2023-02-04T10:18:23.290Z,11.8
2023-02-04T10:19:35.378Z,13.2
2023-02-04T10:20:42.877Z,11.9
2023-02-04T10:21:51.103Z,12.5
2023-02-04T10:22:58.422Z,15.4
2023-02-04T10:24:05.524Z,16.1
2023-02-04T10:25:18.608Z,13.6
2023-02-04T10:26:27.332Z,10.8
2023-02-04T10:27:34.940Z,14.2
2023-02-04T10:28:51.162Z,17.8
2023-02-04T10:30:01.641Z,11.4
2023-02-04T10:31:09.379Z,11
2023-02-04T10:32:28.876Z,11.4
2023-02-04T10:33:37.125Z,12.2
2023-02-04T10:34:44.326Z,19.5
2023-02-04T10:35:51.900Z,20.9
2023-02-04T10:37:00.213Z,15.4
2023-02-04T10:38:08.355Z,12.8
2023-02-04T10:39:16.924Z,13.4
2023-02-04T10:40:29.201Z,10.9
2023-02-04T10:41:36.539Z,8.8
2023-02-04T10:42:50.318Z,9.3
2023-02-04T10:44:00.228Z,8.2
2023-02-04T10:45:10.359Z,9
2023-02-04T10:46:27.605Z,8.8
2023-02-04T10:47:34.544Z,9.2
2023-02-04T10:48:41.901Z,10
2023-02-04T10:49:48.977Z,12.4
2023-02-04T10:50:59.199Z,11.6
2023-02-04T10:52:06.734Z,10.7
2023-02-04T10:53:17.112Z,12.9
2023-02-04T10:54:30.593Z,13.4
2023-02-04T10:55:38.618Z,10.9
2023-02-04T10:56:46.791Z,10.4
2023-02-04T10:57:54.154Z,10.5
2023-02-04T10:59:02.673Z,10.4
2023-02-04T11:00:09.754Z,10.8
2023-02-04T11:01:22.172Z,10.8
2023-02-04T11:02:32.017Z,8.9
2023-02-04T11:03:46.445Z,9.4
2023-02-04T11:04:54.375Z,8.7
2023-02-04T11:06:02.505Z,8.4
2023-02-04T11:07:20.317Z,9.9
2023-02-04T11:08:28.172Z,10.8
2023-02-04T11:09:36.508Z,11.6
2023-02-04T11:10:49.264Z,10.1
2023-02-04T11:12:01.898Z,9.4
2023-02-04T11:13:14.968Z,10.2
2023-02-04T11:14:34.804Z,10.5
2023-02-04T11:15:43.894Z,10.1
2023-02-04T11:16:54.756Z,10.8
2023-02-04T11:18:06.685Z,12.6
2023-02-04T11:19:25.945Z,13.1
2023-02-04T11:20:34.622Z,18.1
2023-02-04T11:21:48.850Z,14
2023-02-04T11:22:58.634Z,12.5
2023-02-04T11:24:19.167Z,15.6
2023-02-04T11:25:28.798Z,12.2
2023-02-04T11:26:38.132Z,10.5
2023-02-04T11:27:54.760Z,10.5
2023-02-04T11:29:05.343Z,8.2
2023-02-04T11:30:16.416Z,6.9
2023-02-04T11:31:28.197Z,8.6
2023-02-04T11:32:45.324Z,9.1
2023-02-04T11:34:03.600Z,19.4
2023-02-04T11:35:13.308Z,9.3
2023-02-04T11:36:25.996Z,10.8
2023-02-04T11:37:34.838Z,9.5
2023-02-04T11:38:44.142Z,9.8
2023-02-04T11:39:52.013Z,10.7
2023-02-04T11:41:00.705Z,10.6
2023-02-04T11:42:09.616Z,11.2
2023-02-04T11:43:24.417Z,11.3
2023-02-04T11:44:33.686Z,9.3
2023-02-04T11:45:44.151Z,11.7
2023-02-04T11:46:55.944Z,13.5
2023-02-04T11:48:04.815Z,12.1
2023-02-04T11:49:18.039Z,13.8
2023-02-04T11:50:28.078Z,13.9
2023-02-04T11:51:38.170Z,19
2023-02-04T11:52:47.949Z,13.3
2023-02-04T11:53:56.819Z,18.1
2023-02-04T11:55:06.783Z,18.1
2023-02-04T11:56:16.060Z,12
2023-02-04T11:57:25.489Z,16
2023-02-04T11:58:36.493Z,24.2
2023-02-04T11:59:47.617Z,12.1
2023-02-04T12:00:55.424Z,9.1
2023-02-04T12:02:05.410Z,9.1
2023-02-04T12:03:20.791Z,17.7
2023-02-04T12:04:33.185Z,11.9
2023-02-04T12:05:44.352Z,11.5
2023-02-04T12:06:52.251Z,9.6
2023-02-04T12:08:03.435Z,14.8
2023-02-04T12:09:14.758Z,12.1
2023-02-04T12:10:23.738Z,10.9
2023-02-04T12:11:32.398Z,12.9
2023-02-04T12:12:42.166Z,24.7
2023-02-04T12:13:53.294Z,20.6
2023-02-04T12:15:03.811Z,22.3
2023-02-04T12:16:21.002Z,17.3
2023-02-04T12:17:30.430Z,14.7
2023-02-04T12:18:41.419Z,13.1
2023-02-04T12:19:49.944Z,9.8
2023-02-04T12:20:58.461Z,8.8
2023-02-04T12:22:07.231Z,10.7
2023-02-04T12:23:15.680Z,12.1
2023-02-04T12:24:26.067Z,11
2023-02-04T12:25:35.263Z,9.7
2023-02-04T12:26:44.694Z,12.9
2023-02-04T12:27:55.816Z,12
2023-02-04T12:29:03.254Z,12.4
2023-02-04T12:30:12.714Z,9.1
2023-02-04T12:31:22.388Z,9.9
2023-02-04T12:32:32.471Z,9.2
2023-02-04T12:33:41.472Z,11.8
2023-02-04T12:34:50.215Z,13.5
2023-02-04T12:35:59.955Z,13.7
2023-02-04T12:37:09.672Z,10.4
2023-02-04T12:38:20.423Z,11.6
2023-02-04T12:39:26.680Z,12.1
2023-02-04T12:40:34.964Z,11.4
2023-02-04T12:41:43.294Z,13.7
2023-02-04T12:42:51.555Z,10.8
2023-02-04T12:44:00.991Z,11.4
2023-02-04T12:45:10.362Z,15
2023-02-04T12:46:20.044Z,10.1
2023-02-04T12:47:28.457Z,9.3
2023-02-04T12:48:37.730Z,11.1
2023-02-04T12:49:46.590Z,9.8
2023-02-04T12:50:54.433Z,10.1
2023-02-04T12:52:05.265Z,14.4
2023-02-04T12:53:14.135Z,14.3
2023-02-04T12:54:21.586Z,15.4
2023-02-04T12:55:31.797Z,10.4
2023-02-04T12:56:40.313Z,12
2023-02-04T12:57:47.905Z,12.2
2023-02-04T12:58:56.084Z,13.1
2023-02-04T13:00:04.504Z,15.3
2023-02-04T13:01:12.144Z,12
2023-02-04T13:02:20.443Z,10.8
2023-02-04T13:03:28.883Z,9.7
2023-02-04T13:04:39.353Z,9.5
2023-02-04T13:05:48.466Z,10.4
2023-02-04T13:06:56.373Z,11.3
2023-02-04T13:08:05.312Z,9.5
2023-02-04T13:09:13.031Z,12.5
2023-02-04T13:10:22.989Z,11
2023-02-04T13:11:31.633Z,9.5
2023-02-04T13:12:42.750Z,11.2
2023-02-04T13:13:51.393Z,10
2023-02-04T13:15:02.866Z,9.2
2023-02-04T13:16:10.625Z,10.3
2023-02-04T13:17:20.785Z,9.9
2023-02-04T13:18:30.663Z,11
2023-02-04T13:19:38.553Z,10.8
2023-02-04T13:20:47.455Z,11.2
2023-02-04T13:21:58.733Z,14.4
2023-02-04T13:23:07.549Z,12.4
2023-02-04T13:24:16.842Z,14.9
2023-02-04T13:25:26.349Z,24.6
2023-02-04T13:26:37.013Z,26.4
2023-02-04T13:27:47.563Z,22.6
2023-02-04T13:28:56.453Z,14.9
2023-02-04T13:30:07.076Z,19.6
2023-02-04T13:31:17.085Z,19
2023-02-04T13:32:26.179Z,20
2023-02-04T13:33:35.028Z,14.7
2023-02-04T13:34:43.590Z,15.9
2023-02-04T13:35:52.829Z,19.8
2023-02-04T13:37:05.381Z,50.5
2023-02-04T13:38:14.887Z,45.2
2023-02-04T13:39:26.361Z,18.1
2023-02-04T13:40:38.803Z,11.4
2023-02-04T13:41:50.045Z,12.3
2023-02-04T13:42:58.885Z,32.4
2023-02-04T13:44:09.708Z,17.4
2023-02-04T13:45:20.039Z,15
2023-02-04T13:46:31.078Z,15.2
2023-02-04T13:47:41.967Z,13
2023-02-04T13:48:54.432Z,14.3
2023-02-04T13:50:05.262Z,10.8
2023-02-04T13:51:15.783Z,14.1
2023-02-04T13:52:24.900Z,12.9
2023-02-04T13:53:38.146Z,11.7
2023-02-04T13:54:47.570Z,12.2
2023-02-04T13:55:55.816Z,11.6
2023-02-04T13:57:07.460Z,11.1
2023-02-04T13:58:18.357Z,12.7
2023-02-04T13:59:28.893Z,14.3
2023-02-04T14:00:43.576Z,9.8
2023-02-04T14:01:54.690Z,11.5
2023-02-04T14:03:06.044Z,10.3
2023-02-04T14:04:16.925Z,14.7
2023-02-04T14:05:28.792Z,12.3
2023-02-04T14:06:40.397Z,16.4
2023-02-04T14:07:50.304Z,22.5
2023-02-04T14:09:00.812Z,24.9
2023-02-04T14:10:12.687Z,24.6
2023-02-04T14:11:22.365Z,19.8
2023-02-04T14:12:34.076Z,15.3
2023-02-04T14:13:45.522Z,11.7
2023-02-04T14:14:58.670Z,13.5
2023-02-04T14:16:09.691Z,12.2
2023-02-04T14:17:20.552Z,9.4
2023-02-04T14:18:29.999Z,8.3
2023-02-04T14:19:42.753Z,8.4
2023-02-04T14:20:52.848Z,10
2023-02-04T14:22:04.120Z,9.1
2023-02-04T14:23:13.500Z,15.5
2023-02-04T14:24:24.448Z,16.7
2023-02-04T14:25:34.391Z,35.4
2023-02-04T14:26:44.499Z,45.1
2023-02-04T14:27:54.091Z,36.5
2023-02-04T14:29:05.239Z,28.8
2023-02-04T14:30:15.339Z,17.3
2023-02-04T14:31:26.515Z,17
2023-02-04T14:32:38.015Z,16.7
2023-02-04T14:33:50.080Z,20.8
2023-02-04T14:34:59.358Z,38.3
2023-02-04T14:36:09.866Z,25.5
2023-02-04T14:37:18.961Z,12.1
2023-02-04T14:38:31.417Z,9.8
2023-02-04T14:39:44.170Z,9.3
2023-02-04T14:40:53.511Z,10.3
2023-02-04T14:42:02.168Z,15.9
2023-02-04T14:43:12.695Z,12.8
2023-02-04T14:44:22.235Z,14.1
2023-02-04T14:45:32.080Z,15.8
2023-02-04T14:46:42.596Z,11.8
2023-02-04T14:47:52.097Z,21.6
2023-02-04T14:49:04.556Z,12.2
2023-02-04T14:50:16.065Z,18
2023-02-04T14:51:26.353Z,41.7
2023-02-04T14:52:36.384Z,12.2
2023-02-04T14:53:48.251Z,45.8
2023-02-04T14:54:56.291Z,33.3
2023-02-04T14:56:05.602Z,13.9
2023-02-04T14:57:17.132Z,28.5
2023-02-04T14:58:28.199Z,16.3
2023-02-04T14:59:38.333Z,30.4
2023-02-04T15:00:50.421Z,23.9
2023-02-04T15:02:01.416Z,16.7
2023-02-04T15:03:10.485Z,15.6
2023-02-04T15:04:21.755Z,15.6
2023-02-04T15:05:31.473Z,15.8
2023-02-04T15:06:39.961Z,23.7
2023-02-04T15:07:49.837Z,23.1
2023-02-04T15:08:58.955Z,26.2
2023-02-04T15:10:07.994Z,51.5
2023-02-04T15:11:18.112Z,145.8
2023-02-04T15:12:28.158Z,147.8
2023-02-04T15:13:36.622Z,404.4
2023-02-04T15:14:46.552Z,341.4
2023-02-04T15:15:56.849Z,223.8
2023-02-04T15:17:06.359Z,36.4
2023-02-04T15:18:16.262Z,114.1
2023-02-04T15:19:27.913Z,117.3
2023-02-04T15:20:36.765Z,196.9
2023-02-04T15:21:46.645Z,135.3
2023-02-04T15:22:59.095Z,41.7
2023-02-04T15:24:07.626Z,29.8
2023-02-04T15:25:19.427Z,20.5
2023-02-04T15:26:30.273Z,45.4
2023-02-04T15:27:39.995Z,28.7
2023-02-04T15:28:50.015Z,26.9
2023-02-04T15:30:00.308Z,25.7
2023-02-04T15:31:11.752Z,26
2023-02-04T15:32:21.534Z,23.7
2023-02-04T15:33:32.259Z,22.6
2023-02-04T15:34:41.638Z,21.2
2023-02-04T15:35:51.620Z,15.1
2023-02-04T15:37:02.857Z,14.8
2023-02-04T15:38:12.473Z,14.5
2023-02-04T15:39:20.900Z,14.7
2023-02-04T15:40:32.875Z,16.2
2023-02-04T15:41:42.364Z,15.1